createdAt,value
2023-01-22T00:01:01.662Z,2.42
2023-01-22T00:03:28.723Z,2.40
2023-01-22T00:05:55.678Z,2.20
2023-01-22T00:08:22.694Z,3.38
2023-01-22T00:10:54.294Z,2.53
2023-01-22T00:13:22.643Z,2.80
2023-01-22T00:15:50.522Z,2.70
2023-01-22T00:18:18.036Z,3.05
2023-01-22T00:20:53.479Z,2.83
2023-01-22T00:23:21.089Z,2.55
2023-01-22T00:25:48.049Z,2.80
2023-01-22T00:28:15.664Z,2.72
2023-01-22T00:30:42.893Z,2.42
2023-01-22T00:33:09.802Z,2.60
2023-01-22T00:35:36.985Z,2.53
2023-01-22T00:38:04.012Z,2.88
2023-01-22T00:40:32.367Z,2.80
2023-01-22T00:42:59.252Z,3.20
2023-01-22T00:45:26.221Z,3.25
2023-01-22T00:47:53.319Z,2.67
2023-01-22T00:50:20.469Z,2.92
2023-01-22T00:52:47.527Z,3.17
2023-01-22T00:55:14.456Z,2.80
2023-01-22T00:57:41.350Z,3.22
2023-01-22T01:00:09.106Z,2.78
2023-01-22T01:02:58.706Z,2.20
2023-01-22T01:05:25.860Z,2.80
2023-01-22T01:07:52.956Z,3.17
2023-01-22T01:10:20.255Z,3.13
2023-01-22T01:12:47.363Z,3.05
2023-01-22T01:15:14.336Z,5.88
2023-01-22T01:17:41.506Z,5.03
2023-01-22T01:20:09.031Z,6.43
2023-01-22T01:22:35.958Z,6.22
2023-01-22T01:25:05.006Z,6.40
2023-01-22T01:27:32.701Z,7.85
2023-01-22T01:29:59.607Z,6.93
2023-01-22T01:32:26.558Z,3.88
2023-01-22T01:34:53.721Z,2.85
2023-01-22T01:37:20.682Z,2.75
2023-01-22T01:39:51.938Z,2.38
2023-01-22T01:42:30.347Z,2.15
2023-01-22T01:45:22.259Z,2.42
2023-01-22T01:47:54.104Z,2.55
2023-01-22T01:50:22.893Z,2.78
2023-01-22T01:52:49.873Z,3.60
2023-01-22T01:55:22.198Z,2.70
2023-01-22T01:57:49.163Z,2.65
2023-01-22T02:00:18.390Z,3.05
2023-01-22T02:02:45.681Z,2.60
2023-01-22T02:05:13.244Z,2.55
2023-01-22T02:07:41.622Z,2.50
2023-01-22T02:10:09.044Z,2.58
2023-01-22T02:12:36.674Z,2.80
2023-01-22T02:15:05.564Z,3.00
2023-01-22T02:17:32.425Z,2.40
2023-01-22T02:19:59.765Z,2.50
2023-01-22T02:22:32.479Z,2.67
2023-01-22T02:25:00.984Z,2.92
2023-01-22T02:27:28.044Z,2.40
2023-01-22T02:29:55.095Z,3.35
2023-01-22T02:32:22.419Z,3.28
2023-01-22T02:34:49.298Z,2.63
2023-01-22T02:37:16.552Z,2.67
2023-01-22T02:39:43.500Z,2.88
2023-01-22T02:42:10.713Z,3.08
2023-01-22T02:44:38.957Z,2.85
2023-01-22T02:47:06.320Z,2.80
2023-01-22T02:49:33.330Z,3.00
2023-01-22T02:52:01.499Z,2.88
2023-01-22T02:54:29.384Z,3.05
2023-01-22T02:56:56.876Z,2.40
2023-01-22T02:59:24.321Z,2.92
2023-01-22T03:01:51.918Z,2.47
2023-01-22T03:04:19.205Z,2.80
2023-01-22T03:06:47.378Z,2.25
2023-01-22T03:09:16.732Z,3.20
2023-01-22T03:11:45.475Z,2.63
2023-01-22T03:14:43.917Z,2.60
2023-01-22T03:17:29.473Z,2.35
2023-01-22T03:20:17.703Z,2.88
2023-01-22T03:22:44.741Z,2.72
2023-01-22T03:25:11.653Z,3.33
2023-01-22T03:27:58.845Z,3.20
2023-01-22T03:30:26.245Z,2.95
2023-01-22T03:32:53.146Z,3.03
2023-01-22T03:35:21.466Z,2.35
2023-01-22T03:38:03.162Z,2.63
2023-01-22T03:40:30.085Z,2.95
2023-01-22T03:42:57.211Z,2.30
2023-01-22T03:45:24.094Z,3.00
2023-01-22T03:47:54.337Z,3.97
2023-01-22T03:50:28.769Z,2.08
2023-01-22T03:52:57.831Z,2.50
2023-01-22T03:55:25.676Z,2.78
2023-01-22T03:57:54.074Z,2.08
2023-01-22T04:00:21.703Z,2.20
2023-01-22T04:02:51.091Z,2.28
2023-01-22T04:05:21.912Z,2.65
2023-01-22T04:07:50.607Z,2.28
2023-01-22T04:10:21.359Z,2.30
2023-01-22T04:12:48.943Z,2.10
2023-01-22T04:15:19.177Z,2.25
2023-01-22T04:17:47.448Z,2.10
2023-01-22T04:20:29.155Z,2.30
2023-01-22T04:23:09.500Z,2.25
2023-01-22T04:25:37.123Z,2.25
2023-01-22T04:28:04.408Z,2.30
2023-01-22T04:30:32.793Z,2.35
2023-01-22T04:33:12.435Z,2.30
2023-01-22T04:35:57.111Z,2.58
2023-01-22T04:38:25.647Z,2.00
2023-01-22T04:40:52.691Z,2.47
2023-01-22T04:43:19.702Z,2.97
2023-01-22T04:45:47.062Z,2.03
2023-01-22T04:48:14.179Z,2.47
2023-01-22T04:50:45.502Z,2.45
2023-01-22T04:53:12.898Z,2.40
2023-01-22T04:55:42.031Z,2.72
2023-01-22T04:58:10.675Z,2.95
2023-01-22T05:00:39.024Z,2.42
2023-01-22T05:03:06.293Z,2.13
2023-01-22T05:05:34.411Z,2.38
2023-01-22T05:08:02.328Z,2.25
2023-01-22T05:10:30.608Z,2.03
2023-01-22T05:12:58.126Z,1.98
2023-01-22T05:15:26.002Z,2.50
2023-01-22T05:17:57.009Z,2.17
2023-01-22T05:20:25.662Z,1.50
2023-01-22T05:22:53.272Z,2.00
2023-01-22T05:25:24.302Z,1.77
2023-01-22T05:27:51.308Z,1.75
2023-01-22T05:30:38.494Z,2.35
2023-01-22T05:33:32.128Z,1.65
2023-01-22T05:36:00.898Z,1.75
2023-01-22T05:38:30.080Z,2.22
2023-01-22T05:40:57.988Z,1.52
2023-01-22T05:43:24.887Z,1.80
2023-01-22T05:46:02.048Z,1.70
2023-01-22T05:48:51.890Z,2.00
2023-01-22T05:51:23.690Z,2.22
2023-01-22T05:53:51.220Z,2.33
2023-01-22T05:56:18.271Z,2.67
2023-01-22T05:58:45.455Z,1.70
2023-01-22T06:01:12.714Z,1.75
2023-01-22T06:03:45.189Z,1.90
2023-01-22T06:06:16.126Z,1.80
2023-01-22T06:08:43.861Z,1.75
2023-01-22T06:11:15.968Z,2.00
2023-01-22T06:13:46.345Z,1.52
2023-01-22T06:16:21.806Z,2.05
2023-01-22T06:19:21.137Z,5.82
2023-01-22T06:21:53.724Z,1.73
2023-01-22T06:24:27.502Z,1.98
2023-01-22T06:26:54.439Z,2.15
2023-01-22T06:29:27.015Z,2.30
2023-01-22T06:31:56.087Z,1.73
2023-01-22T06:34:23.547Z,2.50
2023-01-22T06:36:50.415Z,1.92
2023-01-22T06:39:18.249Z,2.22
2023-01-22T06:41:57.115Z,2.75
2023-01-22T06:44:24.083Z,2.72
2023-01-22T06:46:52.836Z,1.92
2023-01-22T06:49:24.035Z,2.15
2023-01-22T06:51:50.902Z,1.98
2023-01-22T06:54:18.669Z,2.10
2023-01-22T06:56:45.610Z,2.30
2023-01-22T06:59:14.032Z,2.35
2023-01-22T07:01:42.337Z,1.92
2023-01-22T07:04:09.653Z,1.65
2023-01-22T07:06:36.563Z,2.67
2023-01-22T07:09:03.570Z,1.55
2023-01-22T07:11:30.498Z,1.73
2023-01-22T07:13:57.401Z,1.95
2023-01-22T07:16:24.332Z,1.23
2023-01-22T07:18:51.323Z,1.42
2023-01-22T07:21:18.300Z,1.67
2023-01-22T07:23:45.228Z,1.95
2023-01-22T07:26:12.157Z,1.60
2023-01-22T07:28:39.273Z,1.88
2023-01-22T07:31:10.310Z,2.08
2023-01-22T07:33:37.408Z,2.25
2023-01-22T07:36:04.887Z,1.40
2023-01-22T07:38:31.828Z,1.45
2023-01-22T07:41:17.019Z,1.80
2023-01-22T07:43:53.229Z,2.20
2023-01-22T07:46:20.233Z,1.52
2023-01-22T07:48:47.178Z,2.40
2023-01-22T07:51:14.105Z,1.88
2023-01-22T07:53:42.000Z,1.70
2023-01-22T07:56:09.039Z,2.42
2023-01-22T07:58:36.000Z,2.75
2023-01-22T08:01:07.194Z,1.75
2023-01-22T08:03:34.311Z,2.42
2023-01-22T08:06:01.416Z,1.60
2023-01-22T08:08:28.363Z,2.45
2023-01-22T08:10:59.357Z,1.58
2023-01-22T08:13:26.458Z,1.83
2023-01-22T08:15:55.115Z,1.77
2023-01-22T08:18:23.103Z,2.50
2023-01-22T08:20:50.079Z,2.28
2023-01-22T08:23:17.268Z,1.85
2023-01-22T08:25:44.192Z,2.28
2023-01-22T08:28:11.176Z,1.83
2023-01-22T08:30:46.025Z,2.45
2023-01-22T08:33:15.757Z,1.17
2023-01-22T08:35:42.829Z,1.95
2023-01-22T08:38:09.736Z,2.17
2023-01-22T08:40:38.005Z,1.80
2023-01-22T08:43:05.214Z,2.55
2023-01-22T08:45:32.264Z,1.50
2023-01-22T08:48:00.454Z,1.60
2023-01-22T08:50:28.929Z,2.28
2023-01-22T08:52:58.639Z,1.73
2023-01-22T08:55:27.927Z,1.88
2023-01-22T08:57:56.615Z,1.85
2023-01-22T09:00:24.883Z,1.95
2023-01-22T09:02:51.933Z,1.63
2023-01-22T09:05:18.838Z,2.10
2023-01-22T09:07:45.701Z,1.67
2023-01-22T09:10:13.030Z,1.88
2023-01-22T09:12:40.882Z,1.80
2023-01-22T09:15:08.505Z,1.40
2023-01-22T09:17:35.369Z,1.58
2023-01-22T09:20:02.374Z,2.45
2023-01-22T09:22:29.347Z,1.77
2023-01-22T09:24:56.369Z,2.15
2023-01-22T09:27:23.409Z,1.80
2023-01-22T09:29:50.322Z,2.63
2023-01-22T09:32:17.416Z,2.13
2023-01-22T09:34:44.494Z,1.80
2023-01-22T09:37:11.990Z,1.73
2023-01-22T09:39:38.935Z,1.75
2023-01-22T09:42:11.059Z,1.83
2023-01-22T09:44:43.577Z,3.90
2023-01-22T10:17:34.595Z,1.90
2023-01-22T10:20:05.572Z,1.75
2023-01-22T10:22:32.560Z,2.40
2023-01-22T10:24:59.561Z,1.80
2023-01-22T10:27:37.085Z,2.63
2023-01-22T10:30:22.093Z,1.95
2023-01-22T10:33:04.217Z,2.10
2023-01-22T10:35:32.267Z,2.35
2023-01-22T10:38:00.488Z,2.17
2023-01-22T10:40:41.012Z,2.63
2023-01-22T10:43:12.505Z,2.58
2023-01-22T10:45:57.030Z,2.75
2023-01-22T10:48:24.195Z,2.53
2023-01-22T10:51:15.122Z,2.45
2023-01-22T10:53:52.183Z,2.13
2023-01-22T10:56:38.636Z,2.58
2023-01-22T10:59:20.475Z,2.10
2023-01-22T11:01:53.522Z,2.50
2023-01-22T11:04:30.544Z,3.40
2023-01-22T11:07:05.966Z,2.88
2023-01-22T11:10:10.187Z,3.03
2023-01-22T11:12:45.675Z,2.70
2023-01-22T11:15:32.734Z,3.35
2023-01-22T11:20:44.264Z,1.83
2023-01-22T11:23:11.120Z,2.72
2023-01-22T11:26:07.216Z,2.40
2023-01-22T11:28:59.178Z,3.05
2023-01-22T11:31:50.032Z,3.17
2023-01-22T11:34:38.334Z,3.22
2023-01-22T11:37:11.079Z,3.10
2023-01-22T11:40:13.488Z,3.03
2023-01-22T11:42:53.367Z,3.15
2023-01-22T11:45:54.738Z,2.55
2023-01-22T11:48:49.438Z,3.15
2023-01-22T11:51:22.089Z,3.50
2023-01-22T11:53:51.759Z,3.15
2023-01-22T11:56:21.667Z,2.47
2023-01-22T11:59:24.524Z,2.60
2023-01-22T12:02:16.998Z,2.97
2023-01-22T12:05:17.303Z,3.03
2023-01-22T12:07:53.125Z,3.08
2023-01-22T12:10:54.127Z,2.47
2023-01-22T12:13:24.368Z,2.42
2023-01-22T12:16:14.735Z,3.10
2023-01-22T12:19:07.295Z,3.03
2023-01-22T12:21:49.085Z,2.88
2023-01-22T12:24:24.347Z,3.58
2023-01-22T12:27:32.220Z,3.08
2023-01-22T12:30:23.697Z,2.40
2023-01-22T12:32:57.393Z,2.60
2023-01-22T12:35:27.120Z,2.67
2023-01-22T12:37:53.906Z,2.65
2023-01-22T12:40:41.981Z,3.78
2023-01-22T12:43:09.220Z,2.92
2023-01-22T12:45:49.638Z,2.58
2023-01-22T12:48:40.886Z,2.92
2023-01-22T12:51:35.918Z,2.67
2023-01-22T12:54:32.430Z,2.88
2023-01-22T12:57:14.699Z,3.50
2023-01-22T12:59:56.416Z,2.42
2023-01-22T13:02:38.977Z,3.20
2023-01-22T13:05:33.307Z,2.78
2023-01-22T13:08:19.833Z,3.08
2023-01-22T13:11:02.415Z,2.47
2023-01-22T13:13:34.232Z,2.78
2023-01-22T13:16:16.775Z,3.72
2023-01-22T13:18:50.563Z,3.17
2023-01-22T13:21:23.689Z,3.13
2023-01-22T13:23:50.697Z,2.80
2023-01-22T13:26:26.609Z,3.00
2023-01-22T13:29:02.258Z,2.30
2023-01-22T13:31:29.627Z,3.27
2023-01-22T13:33:59.604Z,2.90
2023-01-22T13:36:27.925Z,2.63
2023-01-22T13:38:57.682Z,2.15
2023-01-22T13:41:36.870Z,2.42
2023-01-22T13:44:06.042Z,2.70
2023-01-22T13:46:37.954Z,2.47
2023-01-22T13:49:11.041Z,1.83
2023-01-22T13:51:38.483Z,2.97
2023-01-22T13:54:06.712Z,2.92
2023-01-22T13:56:34.724Z,2.53
2023-01-22T13:59:07.045Z,3.22
2023-01-22T14:01:37.285Z,2.80
2023-01-22T14:04:07.805Z,3.22
2023-01-22T14:06:49.741Z,4.88
2023-01-22T14:09:32.279Z,3.30
2023-01-22T14:12:00.502Z,3.25
2023-01-22T14:14:38.096Z,2.85
2023-01-22T14:17:05.061Z,3.33
2023-01-22T14:19:32.152Z,3.70
2023-01-22T14:21:59.283Z,3.03
2023-01-22T14:24:26.369Z,2.83
2023-01-22T14:26:53.292Z,2.95
2023-01-22T14:29:20.194Z,2.55
2023-01-22T14:31:47.060Z,2.75
2023-01-22T14:34:13.938Z,2.38
2023-01-22T14:36:40.865Z,2.72
2023-01-22T14:39:07.829Z,3.35
2023-01-22T14:41:34.692Z,2.28
2023-01-22T14:44:03.423Z,2.33
2023-01-22T14:46:30.359Z,2.83
2023-01-22T14:48:58.496Z,2.38
2023-01-22T14:51:25.735Z,3.00
2023-01-22T14:53:52.724Z,2.67
2023-01-22T14:56:20.182Z,3.20
2023-01-22T14:58:49.694Z,2.45
2023-01-22T15:01:19.305Z,2.50
2023-01-22T15:03:46.676Z,3.05
2023-01-22T15:06:13.788Z,2.70
2023-01-22T15:08:40.757Z,2.92
2023-01-22T15:11:07.867Z,3.60
2023-01-22T15:13:35.553Z,3.00
2023-01-22T15:16:08.226Z,2.45
2023-01-22T15:18:36.403Z,3.10
2023-01-22T15:21:04.326Z,2.70
2023-01-22T15:23:34.789Z,2.72
2023-01-22T15:26:10.519Z,4.05
2023-01-22T15:28:37.365Z,3.33
2023-01-22T15:31:08.125Z,3.90
2023-01-22T15:33:38.278Z,2.97
2023-01-22T15:36:06.021Z,2.75
2023-01-22T15:38:32.994Z,2.88
2023-01-22T15:41:23.335Z,3.53
2023-01-22T15:43:51.177Z,3.03
2023-01-22T15:46:25.724Z,2.80
2023-01-22T15:48:53.014Z,3.10
2023-01-22T15:51:20.592Z,2.47
2023-01-22T15:53:52.316Z,2.40
2023-01-22T15:56:21.048Z,2.75
2023-01-22T15:58:51.801Z,2.90
2023-01-22T16:01:20.311Z,2.97
2023-01-22T16:03:47.298Z,2.65
2023-01-22T16:06:26.200Z,3.75
2023-01-22T16:08:55.058Z,2.50
2023-01-22T16:11:22.637Z,3.03
2023-01-22T16:13:50.071Z,2.80
2023-01-22T16:16:26.231Z,3.10
2023-01-22T16:18:53.852Z,3.13
2023-01-22T16:21:22.144Z,3.03
2023-01-22T16:23:53.501Z,3.38
2023-01-22T16:26:23.350Z,2.80
2023-01-22T16:28:52.264Z,2.90
2023-01-22T16:31:23.375Z,3.13
2023-01-22T16:33:58.841Z,3.17
2023-01-22T16:36:29.251Z,2.65
2023-01-22T16:38:56.628Z,2.97
2023-01-22T16:41:28.006Z,2.78
2023-01-22T16:43:57.866Z,2.92
2023-01-22T16:46:29.521Z,3.55
2023-01-22T16:49:05.970Z,3.03
2023-01-22T16:51:43.129Z,3.10
2023-01-22T16:54:19.309Z,3.55
2023-01-22T16:56:46.822Z,3.42
2023-01-22T16:59:14.092Z,2.70
2023-01-22T17:01:41.591Z,3.35
2023-01-22T17:04:09.040Z,3.85
2023-01-22T17:06:42.542Z,4.20
2023-01-22T17:09:17.943Z,3.17
2023-01-22T17:11:47.117Z,4.10
2023-01-22T17:14:17.288Z,3.08
2023-01-22T17:16:44.385Z,3.75
2023-01-22T17:19:11.293Z,3.15
2023-01-22T17:21:38.317Z,3.97
2023-01-22T17:24:05.522Z,3.75
2023-01-22T17:26:32.520Z,3.65
2023-01-22T17:28:59.568Z,3.85
2023-01-22T17:31:27.223Z,3.80
2023-01-22T17:33:55.724Z,3.00
2023-01-22T17:36:28.508Z,3.13
2023-01-22T17:38:56.886Z,2.88
2023-01-22T17:41:25.521Z,3.55
2023-01-22T17:43:55.361Z,2.55
2023-01-22T17:46:26.865Z,2.88
2023-01-22T17:48:53.951Z,2.75
2023-01-22T17:51:23.605Z,2.65
2023-01-22T17:53:52.163Z,3.35
2023-01-22T17:56:22.143Z,3.67
2023-01-22T17:58:51.161Z,3.60
2023-01-22T18:01:20.670Z,3.05
2023-01-22T18:03:48.205Z,2.83
2023-01-22T18:06:15.288Z,2.88
2023-01-22T18:08:42.804Z,3.33
2023-01-22T18:11:12.897Z,3.15
2023-01-22T18:13:40.613Z,3.60
2023-01-22T18:16:10.246Z,2.50
2023-01-22T18:18:37.484Z,3.03
2023-01-22T18:21:06.971Z,3.15
2023-01-22T18:23:33.964Z,2.60
2023-01-22T18:26:05.237Z,3.88
2023-01-22T18:28:32.790Z,2.80
2023-01-22T18:31:07.608Z,2.55
2023-01-22T18:33:37.407Z,3.65
2023-01-22T18:36:08.567Z,2.50
2023-01-22T18:38:36.826Z,2.90
2023-01-22T18:41:10.548Z,2.75
2023-01-22T18:43:38.615Z,2.70
2023-01-22T18:46:07.753Z,3.15
2023-01-22T18:48:34.754Z,3.05
2023-01-22T18:51:02.402Z,3.22
2023-01-22T18:53:30.942Z,2.97
2023-01-22T18:56:02.651Z,2.42
2023-01-22T18:58:35.589Z,2.90
2023-01-22T19:01:11.776Z,2.75
2023-01-22T19:06:14.091Z,3.20
2023-01-22T19:08:46.118Z,3.28
2023-01-22T19:11:14.378Z,2.35
2023-01-22T19:13:43.011Z,3.13
2023-01-22T19:16:13.675Z,2.70
2023-01-22T19:18:42.716Z,2.60
2023-01-22T19:21:19.301Z,2.72
2023-01-22T19:26:34.377Z,2.55
2023-01-22T19:29:11.264Z,3.13
2023-01-22T19:31:42.042Z,2.90
2023-01-22T19:34:11.391Z,2.75
2023-01-22T19:36:39.358Z,2.78
2023-01-22T19:39:11.624Z,2.60
2023-01-22T19:41:42.610Z,2.42
2023-01-22T19:44:11.125Z,3.05
2023-01-22T19:46:39.257Z,3.20
2023-01-22T19:49:07.729Z,3.60
2023-01-22T19:51:35.306Z,2.63
2023-01-22T19:54:04.785Z,3.35
2023-01-22T19:56:36.656Z,2.72
2023-01-22T19:59:07.254Z,3.20
2023-01-22T20:01:35.216Z,3.72
2023-01-22T20:04:03.835Z,3.30
2023-01-22T20:06:31.230Z,3.35
2023-01-22T20:08:58.159Z,2.67
2023-01-22T20:11:25.623Z,2.70
2023-01-22T20:13:53.490Z,2.22
2023-01-22T20:16:23.430Z,3.42
2023-01-22T20:18:51.452Z,3.53
2023-01-22T20:21:19.861Z,3.03
2023-01-22T20:23:48.051Z,3.10
2023-01-22T20:26:16.699Z,2.95
2023-01-22T20:28:43.762Z,2.38
2023-01-22T20:31:19.967Z,2.97
2023-01-22T20:33:47.481Z,2.88
2023-01-22T20:36:19.467Z,3.38
2023-01-22T20:38:48.422Z,2.63
2023-01-22T20:41:18.766Z,3.10
2023-01-22T20:43:46.014Z,2.22
2023-01-22T20:46:17.295Z,3.03
2023-01-22T20:48:44.805Z,3.05
2023-01-22T20:51:18.027Z,3.10
2023-01-22T20:53:46.655Z,3.67
2023-01-22T20:56:23.595Z,3.20
2023-01-22T20:59:01.177Z,3.50
2023-01-22T21:01:29.228Z,3.92
2023-01-22T21:03:58.827Z,3.40
2023-01-22T21:06:28.115Z,2.60
2023-01-22T21:08:56.431Z,2.97
2023-01-22T21:11:24.655Z,3.08
2023-01-22T21:13:53.111Z,4.15
2023-01-22T21:16:26.196Z,3.85
2023-01-22T21:19:05.152Z,3.80
2023-01-22T21:21:33.652Z,3.88
2023-01-22T21:24:01.329Z,3.20
2023-01-22T21:26:30.573Z,3.88
2023-01-22T21:29:03.870Z,4.43
2023-01-22T21:31:31.902Z,4.97
2023-01-22T21:34:03.638Z,4.22
2023-01-22T21:36:32.271Z,5.30
2023-01-22T21:38:59.539Z,5.18
2023-01-22T21:41:27.024Z,4.85
2023-01-22T21:44:12.579Z,4.45
2023-01-22T21:46:43.532Z,4.78
2023-01-22T21:49:16.483Z,5.35
2023-01-22T21:51:49.500Z,5.90
2023-01-22T21:54:28.352Z,5.85
2023-01-22T21:56:56.913Z,6.25
2023-01-22T21:59:24.287Z,5.28
2023-01-22T22:01:53.738Z,5.07
2023-01-22T22:04:22.809Z,5.20
2023-01-22T22:06:49.734Z,6.13
2023-01-22T22:09:18.902Z,5.78
2023-01-22T22:11:46.009Z,5.47
2023-01-22T22:14:15.935Z,5.82
2023-01-22T22:16:44.409Z,5.38
2023-01-22T22:19:11.463Z,5.25
2023-01-22T22:21:38.417Z,4.82
2023-01-22T22:24:06.244Z,4.65
2023-01-22T22:26:33.649Z,5.35
2023-01-22T22:29:00.556Z,5.20
2023-01-22T22:31:27.688Z,4.65
2023-01-22T22:33:56.249Z,5.03
2023-01-22T22:36:25.696Z,5.05
2023-01-22T22:38:53.350Z,4.60
2023-01-22T22:41:23.506Z,3.88
2023-01-22T22:43:52.263Z,5.10
2023-01-22T22:46:26.194Z,4.05
2023-01-22T22:48:54.618Z,3.65
2023-01-22T22:51:28.293Z,5.35
2023-01-22T22:53:57.556Z,4.25
2023-01-22T22:56:25.453Z,3.58
2023-01-22T22:58:52.472Z,4.80
2023-01-22T23:01:22.800Z,4.32
2023-01-22T23:03:50.157Z,4.93
2023-01-22T23:06:19.971Z,4.38
2023-01-22T23:08:52.866Z,5.22
2023-01-22T23:11:25.591Z,3.95
2023-01-22T23:13:52.922Z,4.95
2023-01-22T23:16:22.002Z,5.28
2023-01-22T23:18:51.352Z,4.47
2023-01-22T23:21:22.014Z,4.28
2023-01-22T23:23:49.394Z,3.75
2023-01-22T23:26:19.903Z,4.53
2023-01-22T23:28:47.738Z,3.92
2023-01-22T23:31:16.808Z,4.80
2023-01-22T23:33:44.295Z,5.00
2023-01-22T23:36:13.882Z,4.50
2023-01-22T23:38:42.636Z,4.78
2023-01-22T23:41:12.100Z,5.20
2023-01-22T23:43:39.297Z,4.22
2023-01-22T23:46:11.177Z,4.68
2023-01-22T23:48:38.086Z,4.45
2023-01-22T23:51:07.625Z,5.63
2023-01-22T23:53:43.031Z,5.18
2023-01-22T23:56:12.209Z,4.88
2023-01-22T23:58:39.503Z,6.28
